sensor_id;sensor_type;location;lat;lon;timestamp;P1;durP1;ratioP1;P2;durP2;ratioP2
74972;SDS011;63529;56.320;43.990;2022-12-07T00:00:54;3.47;;;1.40;;
74972;SDS011;63529;56.320;43.990;2022-12-07T00:03:21;7.60;;;2.38;;
74972;SDS011;63529;56.320;43.990;2022-12-07T00:05:47;4.50;;;2.15;;
74972;SDS011;63529;56.320;43.990;2022-12-07T00:08:13;5.60;;;2.47;;
74972;SDS011;63529;56.320;43.990;2022-12-07T00:10:38;6.38;;;2.92;;
74972;SDS011;63529;56.320;43.990;2022-12-07T00:13:04;7.50;;;2.83;;
74972;SDS011;63529;56.320;43.990;2022-12-07T00:15:30;5.70;;;2.35;;
74972;SDS011;63529;56.320;43.990;2022-12-07T00:17:58;7.45;;;2.42;;
74972;SDS011;63529;56.320;43.990;2022-12-07T00:20:24;7.68;;;2.60;;
74972;SDS011;63529;56.320;43.990;2022-12-07T00:22:50;4.28;;;1.73;;
74972;SDS011;63529;56.320;43.990;2022-12-07T00:25:16;4.00;;;1.95;;
74972;SDS011;63529;56.320;43.990;2022-12-07T00:27:42;6.45;;;2.58;;
74972;SDS011;63529;56.320;43.990;2022-12-07T00:30:08;8.13;;;2.70;;
74972;SDS011;63529;56.320;43.990;2022-12-07T00:32:34;3.17;;;2.05;;
74972;SDS011;63529;56.320;43.990;2022-12-07T00:35:00;5.88;;;1.80;;
74972;SDS011;63529;56.320;43.990;2022-12-07T00:37:25;4.57;;;2.08;;
74972;SDS011;63529;56.320;43.990;2022-12-07T00:39:51;7.15;;;2.88;;
74972;SDS011;63529;56.320;43.990;2022-12-07T00:42:17;1.52;;;1.20;;
74972;SDS011;63529;56.320;43.990;2022-12-07T00:44:43;3.75;;;1.98;;
74972;SDS011;63529;56.320;43.990;2022-12-07T00:47:09;8.05;;;2.63;;
74972;SDS011;63529;56.320;43.990;2022-12-07T00:49:35;5.03;;;2.05;;
74972;SDS011;63529;56.320;43.990;2022-12-07T00:52:01;4.60;;;2.33;;
74972;SDS011;63529;56.320;43.990;2022-12-07T00:54:27;2.60;;;1.48;;
74972;SDS011;63529;56.320;43.990;2022-12-07T00:56:53;5.97;;;1.85;;
74972;SDS011;63529;56.320;43.990;2022-12-07T00:59:19;7.03;;;1.77;;
74972;SDS011;63529;56.320;43.990;2022-12-07T01:01:44;5.35;;;2.28;;
74972;SDS011;63529;56.320;43.990;2022-12-07T01:04:10;5.00;;;2.40;;
74972;SDS011;63529;56.320;43.990;2022-12-07T01:06:36;4.93;;;2.38;;
74972;SDS011;63529;56.320;43.990;2022-12-07T01:09:02;9.02;;;3.40;;
74972;SDS011;63529;56.320;43.990;2022-12-07T01:11:29;6.30;;;2.35;;
74972;SDS011;63529;56.320;43.990;2022-12-07T01:13:56;5.82;;;2.47;;
74972;SDS011;63529;56.320;43.990;2022-12-07T01:16:24;6.53;;;2.72;;
74972;SDS011;63529;56.320;43.990;2022-12-07T01:18:52;6.68;;;2.75;;
74972;SDS011;63529;56.320;43.990;2022-12-07T01:21:22;7.35;;;2.78;;
74972;SDS011;63529;56.320;43.990;2022-12-07T01:23:49;7.70;;;1.88;;
74972;SDS011;63529;56.320;43.990;2022-12-07T01:26:17;7.45;;;2.92;;
74972;SDS011;63529;56.320;43.990;2022-12-07T01:28:45;7.95;;;2.47;;
74972;SDS011;63529;56.320;43.990;2022-12-07T01:31:12;5.20;;;2.20;;
74972;SDS011;63529;56.320;43.990;2022-12-07T01:33:40;7.53;;;3.15;;
74972;SDS011;63529;56.320;43.990;2022-12-07T01:36:14;4.40;;;2.03;;
74972;SDS011;63529;56.320;43.990;2022-12-07T01:38:49;6.07;;;2.67;;
74972;SDS011;63529;56.320;43.990;2022-12-07T01:41:18;4.85;;;2.10;;
74972;SDS011;63529;56.320;43.990;2022-12-07T01:46:35;3.33;;;1.52;;
74972;SDS011;63529;56.320;43.990;2022-12-07T01:49:01;5.25;;;1.90;;
74972;SDS011;63529;56.320;43.990;2022-12-07T01:51:29;6.53;;;3.08;;
74972;SDS011;63529;56.320;43.990;2022-12-07T01:53:55;4.88;;;2.10;;
74972;SDS011;63529;56.320;43.990;2022-12-07T01:56:23;8.13;;;2.60;;
74972;SDS011;63529;56.320;43.990;2022-12-07T01:58:51;6.25;;;2.15;;
74972;SDS011;63529;56.320;43.990;2022-12-07T02:01:20;5.78;;;2.40;;
74972;SDS011;63529;56.320;43.990;2022-12-07T02:03:46;6.50;;;2.50;;
74972;SDS011;63529;56.320;43.990;2022-12-07T02:06:13;2.13;;;1.38;;
74972;SDS011;63529;56.320;43.990;2022-12-07T02:08:44;5.15;;;1.98;;
74972;SDS011;63529;56.320;43.990;2022-12-07T02:11:11;2.90;;;1.27;;
74972;SDS011;63529;56.320;43.990;2022-12-07T02:13:38;2.75;;;1.60;;
74972;SDS011;63529;56.320;43.990;2022-12-07T02:26:48;5.97;;;2.50;;
74972;SDS011;63529;56.320;43.990;2022-12-07T02:29:25;5.40;;;1.70;;
74972;SDS011;63529;56.320;43.990;2022-12-07T02:32:13;3.70;;;1.60;;
74972;SDS011;63529;56.320;43.990;2022-12-07T02:34:55;4.07;;;1.27;;
74972;SDS011;63529;56.320;43.990;2022-12-07T02:42:43;6.07;;;2.58;;
74972;SDS011;63529;56.320;43.990;2022-12-07T02:45:15;4.93;;;1.65;;
74972;SDS011;63529;56.320;43.990;2022-12-07T02:47:45;3.65;;;1.92;;
74972;SDS011;63529;56.320;43.990;2022-12-07T02:50:14;6.85;;;2.67;;
74972;SDS011;63529;56.320;43.990;2022-12-07T02:52:42;5.82;;;1.70;;
74972;SDS011;63529;56.320;43.990;2022-12-07T02:55:08;4.25;;;1.67;;
74972;SDS011;63529;56.320;43.990;2022-12-07T02:57:42;3.90;;;1.92;;
74972;SDS011;63529;56.320;43.990;2022-12-07T03:00:27;6.60;;;2.33;;
74972;SDS011;63529;56.320;43.990;2022-12-07T03:03:00;8.75;;;3.15;;
74972;SDS011;63529;56.320;43.990;2022-12-07T03:16:20;8.90;;;2.95;;
74972;SDS011;63529;56.320;43.990;2022-12-07T03:19:00;13.63;;;3.35;;
74972;SDS011;63529;56.320;43.990;2022-12-07T03:21:32;8.00;;;2.72;;
74972;SDS011;63529;56.320;43.990;2022-12-07T03:24:03;11.07;;;2.22;;
74972;SDS011;63529;56.320;43.990;2022-12-07T03:26:35;6.97;;;1.85;;
74972;SDS011;63529;56.320;43.990;2022-12-07T03:29:07;5.97;;;1.98;;
74972;SDS011;63529;56.320;43.990;2022-12-07T03:31:40;11.65;;;3.13;;
74972;SDS011;63529;56.320;43.990;2022-12-07T03:34:11;6.70;;;2.63;;
74972;SDS011;63529;56.320;43.990;2022-12-07T03:36:46;7.47;;;2.30;;
74972;SDS011;63529;56.320;43.990;2022-12-07T03:41:53;7.57;;;2.70;;
74972;SDS011;63529;56.320;43.990;2022-12-07T03:44:21;8.80;;;3.08;;
74972;SDS011;63529;56.320;43.990;2022-12-07T03:49:43;6.00;;;2.55;;
74972;SDS011;63529;56.320;43.990;2022-12-07T03:57:40;6.95;;;2.75;;
74972;SDS011;63529;56.320;43.990;2022-12-07T04:00:09;7.00;;;3.10;;
74972;SDS011;63529;56.320;43.990;2022-12-07T04:02:39;5.35;;;2.90;;
74972;SDS011;63529;56.320;43.990;2022-12-07T04:05:06;5.18;;;1.95;;
74972;SDS011;63529;56.320;43.990;2022-12-07T04:07:32;12.05;;;2.25;;
74972;SDS011;63529;56.320;43.990;2022-12-07T04:09:58;6.90;;;2.75;;
74972;SDS011;63529;56.320;43.990;2022-12-07T04:12:24;8.25;;;2.63;;
74972;SDS011;63529;56.320;43.990;2022-12-07T04:14:50;9.10;;;3.25;;
74972;SDS011;63529;56.320;43.990;2022-12-07T04:17:16;9.38;;;3.10;;
74972;SDS011;63529;56.320;43.990;2022-12-07T04:19:42;14.15;;;3.92;;
74972;SDS011;63529;56.320;43.990;2022-12-07T04:22:08;7.82;;;2.38;;
74972;SDS011;63529;56.320;43.990;2022-12-07T04:24:34;8.50;;;2.97;;
74972;SDS011;63529;56.320;43.990;2022-12-07T04:27:00;8.02;;;2.88;;
74972;SDS011;63529;56.320;43.990;2022-12-07T04:29:26;7.15;;;2.72;;
74972;SDS011;63529;56.320;43.990;2022-12-07T04:31:52;5.28;;;2.53;;
74972;SDS011;63529;56.320;43.990;2022-12-07T04:34:19;8.70;;;2.65;;
74972;SDS011;63529;56.320;43.990;2022-12-07T04:36:45;9.30;;;3.03;;
74972;SDS011;63529;56.320;43.990;2022-12-07T04:39:22;11.00;;;3.58;;
74972;SDS011;63529;56.320;43.990;2022-12-07T04:41:52;6.75;;;2.65;;
74972;SDS011;63529;56.320;43.990;2022-12-07T04:44:18;7.78;;;2.97;;
74972;SDS011;63529;56.320;43.990;2022-12-07T04:46:45;11.35;;;3.90;;
74972;SDS011;63529;56.320;43.990;2022-12-07T04:49:12;6.00;;;2.17;;
74972;SDS011;63529;56.320;43.990;2022-12-07T04:51:39;6.28;;;2.83;;
74972;SDS011;63529;56.320;43.990;2022-12-07T04:54:06;6.07;;;2.65;;
74972;SDS011;63529;56.320;43.990;2022-12-07T04:56:32;8.93;;;3.50;;
74972;SDS011;63529;56.320;43.990;2022-12-07T04:59:00;4.30;;;1.90;;
74972;SDS011;63529;56.320;43.990;2022-12-07T05:01:27;14.25;;;4.88;;
74972;SDS011;63529;56.320;43.990;2022-12-07T05:03:53;12.25;;;4.53;;
74972;SDS011;63529;56.320;43.990;2022-12-07T05:06:19;6.05;;;2.83;;
74972;SDS011;63529;56.320;43.990;2022-12-07T05:08:45;8.85;;;2.92;;
74972;SDS011;63529;56.320;43.990;2022-12-07T05:11:12;9.32;;;2.70;;
74972;SDS011;63529;56.320;43.990;2022-12-07T05:13:59;2.83;;;1.75;;
74972;SDS011;63529;56.320;43.990;2022-12-07T05:16:26;6.65;;;3.17;;
74972;SDS011;63529;56.320;43.990;2022-12-07T05:18:52;6.65;;;2.85;;
74972;SDS011;63529;56.320;43.990;2022-12-07T05:21:18;10.13;;;3.80;;
74972;SDS011;63529;56.320;43.990;2022-12-07T05:23:44;14.70;;;4.28;;
74972;SDS011;63529;56.320;43.990;2022-12-07T05:26:10;4.85;;;1.77;;
74972;SDS011;63529;56.320;43.990;2022-12-07T05:28:35;5.07;;;1.83;;
74972;SDS011;63529;56.320;43.990;2022-12-07T05:31:01;3.85;;;1.58;;
74972;SDS011;63529;56.320;43.990;2022-12-07T05:33:27;7.70;;;3.05;;
74972;SDS011;63529;56.320;43.990;2022-12-07T05:35:53;7.93;;;3.28;;
74972;SDS011;63529;56.320;43.990;2022-12-07T05:38:19;9.48;;;3.72;;
74972;SDS011;63529;56.320;43.990;2022-12-07T05:40:45;8.85;;;2.92;;
74972;SDS011;63529;56.320;43.990;2022-12-07T05:43:11;8.10;;;3.25;;
74972;SDS011;63529;56.320;43.990;2022-12-07T05:45:36;6.00;;;2.40;;
74972;SDS011;63529;56.320;43.990;2022-12-07T05:48:02;5.75;;;2.60;;
74972;SDS011;63529;56.320;43.990;2022-12-07T05:50:28;6.68;;;2.90;;
74972;SDS011;63529;56.320;43.990;2022-12-07T05:53:01;7.05;;;3.13;;
74972;SDS011;63529;56.320;43.990;2022-12-07T05:55:27;9.18;;;3.58;;
74972;SDS011;63529;56.320;43.990;2022-12-07T05:57:53;6.90;;;2.72;;
74972;SDS011;63529;56.320;43.990;2022-12-07T06:00:37;9.13;;;3.83;;
74972;SDS011;63529;56.320;43.990;2022-12-07T06:03:03;4.05;;;1.80;;
74972;SDS011;63529;56.320;43.990;2022-12-07T06:05:29;9.00;;;3.60;;
74972;SDS011;63529;56.320;43.990;2022-12-07T06:07:55;4.07;;;1.73;;
74972;SDS011;63529;56.320;43.990;2022-12-07T06:10:21;8.45;;;3.28;;
74972;SDS011;63529;56.320;43.990;2022-12-07T06:12:46;8.30;;;2.17;;
74972;SDS011;63529;56.320;43.990;2022-12-07T06:15:12;9.88;;;3.42;;
74972;SDS011;63529;56.320;43.990;2022-12-07T06:17:39;5.97;;;2.53;;
74972;SDS011;63529;56.320;43.990;2022-12-07T06:20:05;4.82;;;2.28;;
74972;SDS011;63529;56.320;43.990;2022-12-07T06:22:32;6.43;;;2.30;;
74972;SDS011;63529;56.320;43.990;2022-12-07T06:24:58;5.82;;;1.92;;
74972;SDS011;63529;56.320;43.990;2022-12-07T06:27:24;6.55;;;2.47;;
74972;SDS011;63529;56.320;43.990;2022-12-07T06:29:50;7.85;;;2.50;;
74972;SDS011;63529;56.320;43.990;2022-12-07T06:32:15;4.97;;;2.28;;
74972;SDS011;63529;56.320;43.990;2022-12-07T06:34:41;9.88;;;3.30;;
74972;SDS011;63529;56.320;43.990;2022-12-07T06:37:07;7.95;;;2.78;;
74972;SDS011;63529;56.320;43.990;2022-12-07T06:39:33;6.03;;;2.80;;
74972;SDS011;63529;56.320;43.990;2022-12-07T06:41:59;6.50;;;3.22;;
74972;SDS011;63529;56.320;43.990;2022-12-07T06:44:25;5.97;;;2.97;;
74972;SDS011;63529;56.320;43.990;2022-12-07T06:46:51;10.35;;;3.75;;
74972;SDS011;63529;56.320;43.990;2022-12-07T06:49:18;14.35;;;4.68;;
74972;SDS011;63529;56.320;43.990;2022-12-07T06:51:44;9.45;;;3.10;;
74972;SDS011;63529;56.320;43.990;2022-12-07T06:54:10;7.15;;;2.65;;
74972;SDS011;63529;56.320;43.990;2022-12-07T06:56:37;12.23;;;4.05;;
74972;SDS011;63529;56.320;43.990;2022-12-07T06:59:03;7.13;;;2.95;;
74972;SDS011;63529;56.320;43.990;2022-12-07T07:01:32;4.35;;;2.30;;
74972;SDS011;63529;56.320;43.990;2022-12-07T07:03:58;5.18;;;2.08;;
74972;SDS011;63529;56.320;43.990;2022-12-07T07:06:24;9.30;;;2.85;;
74972;SDS011;63529;56.320;43.990;2022-12-07T07:08:50;7.57;;;3.03;;
74972;SDS011;63529;56.320;43.990;2022-12-07T07:11:17;10.23;;;4.15;;
74972;SDS011;63529;56.320;43.990;2022-12-07T07:13:43;8.38;;;2.65;;
74972;SDS011;63529;56.320;43.990;2022-12-07T07:16:10;8.10;;;3.25;;
74972;SDS011;63529;56.320;43.990;2022-12-07T07:18:36;11.05;;;4.03;;
74972;SDS011;63529;56.320;43.990;2022-12-07T07:21:02;13.02;;;4.47;;
74972;SDS011;63529;56.320;43.990;2022-12-07T07:23:29;11.05;;;3.80;;
74972;SDS011;63529;56.320;43.990;2022-12-07T07:25:55;10.32;;;4.45;;
74972;SDS011;63529;56.320;43.990;2022-12-07T07:28:21;13.93;;;4.25;;
74972;SDS011;63529;56.320;43.990;2022-12-07T07:30:47;14.35;;;5.00;;
74972;SDS011;63529;56.320;43.990;2022-12-07T07:33:13;11.20;;;4.45;;
74972;SDS011;63529;56.320;43.990;2022-12-07T07:35:40;16.40;;;4.65;;
74972;SDS011;63529;56.320;43.990;2022-12-07T07:38:06;11.23;;;4.28;;
74972;SDS011;63529;56.320;43.990;2022-12-07T07:40:33;10.52;;;4.63;;
74972;SDS011;63529;56.320;43.990;2022-12-07T07:42:59;10.90;;;4.43;;
74972;SDS011;63529;56.320;43.990;2022-12-07T07:45:25;10.32;;;3.78;;
74972;SDS011;63529;56.320;43.990;2022-12-07T07:47:52;14.85;;;4.68;;
74972;SDS011;63529;56.320;43.990;2022-12-07T07:50:18;12.85;;;5.13;;
74972;SDS011;63529;56.320;43.990;2022-12-07T07:52:44;14.93;;;4.47;;
74972;SDS011;63529;56.320;43.990;2022-12-07T07:55:11;13.43;;;4.65;;
74972;SDS011;63529;56.320;43.990;2022-12-07T07:57:39;11.80;;;4.25;;
74972;SDS011;63529;56.320;43.990;2022-12-07T08:00:07;10.90;;;4.93;;
74972;SDS011;63529;56.320;43.990;2022-12-07T08:02:39;11.85;;;4.90;;
74972;SDS011;63529;56.320;43.990;2022-12-07T08:05:06;14.05;;;5.90;;
74972;SDS011;63529;56.320;43.990;2022-12-07T08:07:32;14.52;;;5.40;;
74972;SDS011;63529;56.320;43.990;2022-12-07T08:09:58;12.77;;;5.40;;
74972;SDS011;63529;56.320;43.990;2022-12-07T08:12:24;16.20;;;6.93;;
74972;SDS011;63529;56.320;43.990;2022-12-07T08:14:50;13.15;;;4.90;;
74972;SDS011;63529;56.320;43.990;2022-12-07T08:17:16;16.00;;;5.93;;
74972;SDS011;63529;56.320;43.990;2022-12-07T08:19:42;13.18;;;5.38;;
74972;SDS011;63529;56.320;43.990;2022-12-07T08:22:08;17.52;;;5.57;;
74972;SDS011;63529;56.320;43.990;2022-12-07T08:24:34;11.63;;;4.47;;
74972;SDS011;63529;56.320;43.990;2022-12-07T08:27:01;12.18;;;4.70;;
74972;SDS011;63529;56.320;43.990;2022-12-07T08:29:27;10.63;;;5.43;;
74972;SDS011;63529;56.320;43.990;2022-12-07T08:31:53;12.43;;;6.18;;
74972;SDS011;63529;56.320;43.990;2022-12-07T08:34:19;9.27;;;4.25;;
74972;SDS011;63529;56.320;43.990;2022-12-07T08:36:45;14.18;;;4.60;;
74972;SDS011;63529;56.320;43.990;2022-12-07T08:39:11;12.20;;;5.28;;
74972;SDS011;63529;56.320;43.990;2022-12-07T08:41:37;11.88;;;5.35;;
74972;SDS011;63529;56.320;43.990;2022-12-07T08:44:03;13.20;;;5.35;;
74972;SDS011;63529;56.320;43.990;2022-12-07T08:49:30;10.38;;;4.35;;
74972;SDS011;63529;56.320;43.990;2022-12-07T08:51:59;11.52;;;4.93;;
74972;SDS011;63529;56.320;43.990;2022-12-07T08:54:27;12.25;;;4.63;;
74972;SDS011;63529;56.320;43.990;2022-12-07T08:56:54;12.02;;;4.82;;
74972;SDS011;63529;56.320;43.990;2022-12-07T08:59:21;13.23;;;4.50;;
74972;SDS011;63529;56.320;43.990;2022-12-07T09:01:48;10.80;;;4.55;;
74972;SDS011;63529;56.320;43.990;2022-12-07T09:04:14;11.98;;;4.25;;
74972;SDS011;63529;56.320;43.990;2022-12-07T09:06:41;10.88;;;4.35;;
74972;SDS011;63529;56.320;43.990;2022-12-07T09:09:07;9.95;;;4.28;;
74972;SDS011;63529;56.320;43.990;2022-12-07T09:11:34;10.20;;;3.75;;
74972;SDS011;63529;56.320;43.990;2022-12-07T09:14:00;8.93;;;4.05;;
74972;SDS011;63529;56.320;43.990;2022-12-07T09:16:26;10.52;;;4.50;;
74972;SDS011;63529;56.320;43.990;2022-12-07T09:18:54;12.77;;;5.30;;
74972;SDS011;63529;56.320;43.990;2022-12-07T09:21:20;12.90;;;4.93;;
74972;SDS011;63529;56.320;43.990;2022-12-07T09:23:45;11.80;;;4.97;;
74972;SDS011;63529;56.320;43.990;2022-12-07T09:26:11;10.13;;;4.03;;
74972;SDS011;63529;56.320;43.990;2022-12-07T09:28:37;15.18;;;5.38;;
74972;SDS011;63529;56.320;43.990;2022-12-07T09:31:04;14.32;;;4.85;;
74972;SDS011;63529;56.320;43.990;2022-12-07T09:33:30;9.15;;;3.10;;
74972;SDS011;63529;56.320;43.990;2022-12-07T09:35:57;10.25;;;4.20;;
74972;SDS011;63529;56.320;43.990;2022-12-07T09:38:23;12.30;;;4.75;;
74972;SDS011;63529;56.320;43.990;2022-12-07T09:40:52;12.45;;;4.47;;
74972;SDS011;63529;56.320;43.990;2022-12-07T09:43:23;5.93;;;2.58;;
74972;SDS011;63529;56.320;43.990;2022-12-07T09:45:51;8.63;;;3.25;;
74972;SDS011;63529;56.320;43.990;2022-12-07T09:48:21;11.85;;;4.10;;
74972;SDS011;63529;56.320;43.990;2022-12-07T09:50:47;8.35;;;3.03;;
74972;SDS011;63529;56.320;43.990;2022-12-07T09:53:37;10.50;;;3.38;;
74972;SDS011;63529;56.320;43.990;2022-12-07T09:56:03;12.60;;;4.20;;
74972;SDS011;63529;56.320;43.990;2022-12-07T09:58:30;7.70;;;3.22;;
74972;SDS011;63529;56.320;43.990;2022-12-07T10:01:00;9.32;;;3.72;;
74972;SDS011;63529;56.320;43.990;2022-12-07T10:03:36;14.90;;;5.22;;
74972;SDS011;63529;56.320;43.990;2022-12-07T10:06:04;13.73;;;4.68;;
74972;SDS011;63529;56.320;43.990;2022-12-07T10:08:31;10.82;;;3.70;;
74972;SDS011;63529;56.320;43.990;2022-12-07T10:10:58;6.75;;;2.70;;
74972;SDS011;63529;56.320;43.990;2022-12-07T10:13:35;12.93;;;4.03;;
74972;SDS011;63529;56.320;43.990;2022-12-07T10:16:01;14.70;;;3.83;;
74972;SDS011;63529;56.320;43.990;2022-12-07T10:18:32;8.88;;;4.03;;
74972;SDS011;63529;56.320;43.990;2022-12-07T10:23:38;12.63;;;4.90;;
74972;SDS011;63529;56.320;43.990;2022-12-07T10:29:22;13.07;;;4.22;;
74972;SDS011;63529;56.320;43.990;2022-12-07T10:34:36;11.55;;;4.38;;
74972;SDS011;63529;56.320;43.990;2022-12-07T10:42:16;7.50;;;3.10;;
74972;SDS011;63529;56.320;43.990;2022-12-07T10:44:47;10.43;;;3.00;;
74972;SDS011;63529;56.320;43.990;2022-12-07T10:47:34;11.60;;;2.83;;
74972;SDS011;63529;56.320;43.990;2022-12-07T10:58:12;10.82;;;3.83;;
74972;SDS011;63529;56.320;43.990;2022-12-07T11:11:28;9.60;;;4.05;;
74972;SDS011;63529;56.320;43.990;2022-12-07T11:14:15;10.75;;;4.80;;
74972;SDS011;63529;56.320;43.990;2022-12-07T11:28:15;8.77;;;3.28;;
74972;SDS011;63529;56.320;43.990;2022-12-07T11:33:19;12.88;;;4.65;;
74972;SDS011;63529;56.320;43.990;2022-12-07T11:41:06;15.23;;;5.07;;
74972;SDS011;63529;56.320;43.990;2022-12-07T11:43:42;15.35;;;6.03;;
74972;SDS011;63529;56.320;43.990;2022-12-07T11:46:35;15.93;;;5.05;;
74972;SDS011;63529;56.320;43.990;2022-12-07T11:49:10;11.52;;;5.03;;
74972;SDS011;63529;56.320;43.990;2022-12-07T11:51:47;10.38;;;4.10;;
74972;SDS011;63529;56.320;43.990;2022-12-07T11:54:21;7.65;;;2.60;;
74972;SDS011;63529;56.320;43.990;2022-12-07T11:56:52;8.20;;;2.78;;
74972;SDS011;63529;56.320;43.990;2022-12-07T11:59:38;10.85;;;4.38;;
74972;SDS011;63529;56.320;43.990;2022-12-07T12:02:13;13.20;;;4.22;;
74972;SDS011;63529;56.320;43.990;2022-12-07T12:05:05;8.68;;;3.40;;
74972;SDS011;63529;56.320;43.990;2022-12-07T12:07:39;17.35;;;5.35;;
74972;SDS011;63529;56.320;43.990;2022-12-07T12:10:15;10.40;;;3.92;;
74972;SDS011;63529;56.320;43.990;2022-12-07T12:18:40;12.52;;;5.03;;
74972;SDS011;63529;56.320;43.990;2022-12-07T12:21:09;9.25;;;3.50;;
74972;SDS011;63529;56.320;43.990;2022-12-07T12:23:41;20.40;;;6.95;;
74972;SDS011;63529;56.320;43.990;2022-12-07T12:26:23;15.52;;;5.78;;
74972;SDS011;63529;56.320;43.990;2022-12-07T12:28:54;8.25;;;3.08;;
74972;SDS011;63529;56.320;43.990;2022-12-07T12:33:54;13.35;;;4.43;;
74972;SDS011;63529;56.320;43.990;2022-12-07T12:41:54;17.77;;;4.88;;
74972;SDS011;63529;56.320;43.990;2022-12-07T12:46:55;10.38;;;3.75;;
74972;SDS011;63529;56.320;43.990;2022-12-07T12:51:57;12.45;;;4.55;;
74972;SDS011;63529;56.320;43.990;2022-12-07T12:54:26;7.95;;;3.17;;
74972;SDS011;63529;56.320;43.990;2022-12-07T12:57:15;15.65;;;5.43;;
74972;SDS011;63529;56.320;43.990;2022-12-07T13:10:22;12.10;;;4.18;;
74972;SDS011;63529;56.320;43.990;2022-12-07T13:13:25;13.25;;;5.30;;
74972;SDS011;63529;56.320;43.990;2022-12-07T13:20:58;7.65;;;3.25;;
74972;SDS011;63529;56.320;43.990;2022-12-07T13:23:38;14.98;;;3.45;;
74972;SDS011;63529;56.320;43.990;2022-12-07T13:26:26;6.82;;;2.38;;
74972;SDS011;63529;56.320;43.990;2022-12-07T13:29:06;4.68;;;2.38;;
74972;SDS011;63529;56.320;43.990;2022-12-07T13:31:46;7.90;;;2.85;;
74972;SDS011;63529;56.320;43.990;2022-12-07T13:34:30;6.25;;;3.10;;
74972;SDS011;63529;56.320;43.990;2022-12-07T13:37:00;17.77;;;5.32;;
74972;SDS011;63529;56.320;43.990;2022-12-07T13:39:33;8.05;;;3.03;;
74972;SDS011;63529;56.320;43.990;2022-12-07T13:42:15;10.88;;;4.38;;
74972;SDS011;63529;56.320;43.990;2022-12-07T13:44:52;10.73;;;4.88;;
74972;SDS011;63529;56.320;43.990;2022-12-07T13:47:23;9.57;;;3.63;;
74972;SDS011;63529;56.320;43.990;2022-12-07T13:49:57;12.98;;;3.75;;
74972;SDS011;63529;56.320;43.990;2022-12-07T13:52:24;8.45;;;3.85;;
74972;SDS011;63529;56.320;43.990;2022-12-07T13:59:51;9.75;;;3.03;;
74972;SDS011;63529;56.320;43.990;2022-12-07T14:02:22;10.45;;;3.53;;
74972;SDS011;63529;56.320;43.990;2022-12-07T14:05:05;10.02;;;3.05;;
74972;SDS011;63529;56.320;43.990;2022-12-07T14:07:48;8.90;;;3.30;;
74972;SDS011;63529;56.320;43.990;2022-12-07T14:10:29;5.75;;;2.22;;
74972;SDS011;63529;56.320;43.990;2022-12-07T14:12:59;7.93;;;3.47;;
74972;SDS011;63529;56.320;43.990;2022-12-07T14:15:33;6.38;;;3.05;;
74972;SDS011;63529;56.320;43.990;2022-12-07T14:18:00;12.75;;;4.90;;
74972;SDS011;63529;56.320;43.990;2022-12-07T14:20:36;11.25;;;3.90;;
74972;SDS011;63529;56.320;43.990;2022-12-07T14:23:04;14.40;;;3.88;;
74972;SDS011;63529;56.320;43.990;2022-12-07T14:25:46;8.75;;;3.47;;
74972;SDS011;63529;56.320;43.990;2022-12-07T14:28:33;5.63;;;2.55;;
74972;SDS011;63529;56.320;43.990;2022-12-07T14:31:01;8.07;;;2.92;;
74972;SDS011;63529;56.320;43.990;2022-12-07T14:33:27;12.07;;;3.58;;
74972;SDS011;63529;56.320;43.990;2022-12-07T14:35:54;6.13;;;3.47;;
74972;SDS011;63529;56.320;43.990;2022-12-07T14:38:23;6.00;;;2.53;;
74972;SDS011;63529;56.320;43.990;2022-12-07T14:40:51;14.93;;;5.15;;
74972;SDS011;63529;56.320;43.990;2022-12-07T14:43:18;11.63;;;3.35;;
74972;SDS011;63529;56.320;43.990;2022-12-07T14:45:45;5.78;;;2.70;;
74972;SDS011;63529;56.320;43.990;2022-12-07T14:48:12;8.32;;;4.07;;
74972;SDS011;63529;56.320;43.990;2022-12-07T14:50:44;8.73;;;3.17;;
74972;SDS011;63529;56.320;43.990;2022-12-07T14:53:18;16.02;;;5.40;;
74972;SDS011;63529;56.320;43.990;2022-12-07T14:55:50;18.75;;;5.22;;
74972;SDS011;63529;56.320;43.990;2022-12-07T14:58:16;8.98;;;3.70;;
74972;SDS011;63529;56.320;43.990;2022-12-07T15:00:44;15.60;;;6.07;;
74972;SDS011;63529;56.320;43.990;2022-12-07T15:03:10;12.68;;;3.63;;
74972;SDS011;63529;56.320;43.990;2022-12-07T15:05:38;10.45;;;3.88;;
74972;SDS011;63529;56.320;43.990;2022-12-07T15:08:04;8.18;;;3.30;;
74972;SDS011;63529;56.320;43.990;2022-12-07T15:10:32;18.83;;;5.70;;
74972;SDS011;63529;56.320;43.990;2022-12-07T15:12:59;16.02;;;5.82;;
74972;SDS011;63529;56.320;43.990;2022-12-07T15:15:44;8.90;;;3.40;;
74972;SDS011;63529;56.320;43.990;2022-12-07T15:18:11;8.57;;;3.83;;
74972;SDS011;63529;56.320;43.990;2022-12-07T15:20:37;9.65;;;3.72;;
74972;SDS011;63529;56.320;43.990;2022-12-07T15:23:04;15.55;;;5.32;;
74972;SDS011;63529;56.320;43.990;2022-12-07T15:25:30;11.40;;;3.65;;
74972;SDS011;63529;56.320;43.990;2022-12-07T15:27:56;18.67;;;4.90;;
74972;SDS011;63529;56.320;43.990;2022-12-07T15:30:22;8.55;;;3.75;;
74972;SDS011;63529;56.320;43.990;2022-12-07T15:32:49;5.32;;;2.20;;
74972;SDS011;63529;56.320;43.990;2022-12-07T15:35:15;16.83;;;5.25;;
74972;SDS011;63529;56.320;43.990;2022-12-07T15:37:41;3.55;;;1.92;;
74972;SDS011;63529;56.320;43.990;2022-12-07T15:40:07;8.93;;;2.95;;
74972;SDS011;63529;56.320;43.990;2022-12-07T15:42:37;10.13;;;4.18;;
74972;SDS011;63529;56.320;43.990;2022-12-07T15:45:04;7.55;;;2.83;;
74972;SDS011;63529;56.320;43.990;2022-12-07T15:47:34;13.88;;;3.65;;
74972;SDS011;63529;56.320;43.990;2022-12-07T15:50:05;15.32;;;4.25;;
74972;SDS011;63529;56.320;43.990;2022-12-07T15:52:33;10.48;;;4.25;;
74972;SDS011;63529;56.320;43.990;2022-12-07T15:55:00;10.18;;;4.38;;
74972;SDS011;63529;56.320;43.990;2022-12-07T15:57:29;4.30;;;2.30;;
74972;SDS011;63529;56.320;43.990;2022-12-07T15:59:56;8.20;;;2.92;;
74972;SDS011;63529;56.320;43.990;2022-12-07T16:02:22;10.85;;;3.40;;
74972;SDS011;63529;56.320;43.990;2022-12-07T16:04:48;6.70;;;3.05;;
74972;SDS011;63529;56.320;43.990;2022-12-07T16:07:16;16.40;;;4.20;;
74972;SDS011;63529;56.320;43.990;2022-12-07T16:09:43;8.25;;;3.30;;
74972;SDS011;63529;56.320;43.990;2022-12-07T16:12:10;10.38;;;3.17;;
74972;SDS011;63529;56.320;43.990;2022-12-07T16:14:37;13.10;;;3.97;;
74972;SDS011;63529;56.320;43.990;2022-12-07T16:17:03;5.30;;;2.45;;
74972;SDS011;63529;56.320;43.990;2022-12-07T16:19:30;11.00;;;3.60;;
74972;SDS011;63529;56.320;43.990;2022-12-07T16:21:56;10.45;;;3.95;;
74972;SDS011;63529;56.320;43.990;2022-12-07T16:24:22;7.40;;;3.42;;
74972;SDS011;63529;56.320;43.990;2022-12-07T16:26:48;6.60;;;2.78;;
74972;SDS011;63529;56.320;43.990;2022-12-07T16:29:16;12.88;;;4.03;;
74972;SDS011;63529;56.320;43.990;2022-12-07T16:31:43;11.13;;;3.47;;
74972;SDS011;63529;56.320;43.990;2022-12-07T16:34:09;9.48;;;2.63;;
74972;SDS011;63529;56.320;43.990;2022-12-07T16:36:35;6.85;;;2.78;;
74972;SDS011;63529;56.320;43.990;2022-12-07T16:39:01;6.80;;;1.77;;
74972;SDS011;63529;56.320;43.990;2022-12-07T16:41:28;8.77;;;3.42;;
74972;SDS011;63529;56.320;43.990;2022-12-07T16:43:54;9.05;;;2.97;;
74972;SDS011;63529;56.320;43.990;2022-12-07T16:46:20;6.65;;;2.67;;
74972;SDS011;63529;56.320;43.990;2022-12-07T16:48:46;8.35;;;3.35;;
74972;SDS011;63529;56.320;43.990;2022-12-07T16:51:12;8.13;;;3.75;;
74972;SDS011;63529;56.320;43.990;2022-12-07T16:53:39;11.40;;;3.35;;